Time;durP1;ratioP1;P1;durP2;ratioP2;P2;SDS_P1;SDS_P2;PMS_P1;PMS_P2;Temp;Humidity;BMP_temperature;BMP_pressure;BME280_temperature;BME280_humidity;BME280_pressure;Samples;Min_cycle;Max_cycle;Signal;HPM_P1;HPM_P2
2023/07/20 00:01:28;;;;;;;1.90;1.38;;;;;;;;;;4974618;28;20054;-67
2023/07/20 00:03:57;;;;;;;5.03;1.70;;;;;;;;;;4976573;28;20027;-66
2023/07/20 00:06:24;;;;;;;2.72;1.25;;;;;;;;;;4976193;28;20029;-65
2023/07/20 00:08:51;;;;;;;2.55;1.40;;;;;;;;;;4976178;28;20023;-65
2023/07/20 00:11:18;;;;;;;2.92;1.48;;;;;;;;;;4976420;28;20030;-66
2023/07/20 00:13:44;;;;;;;5.75;1.70;;;;;;;;;;4976013;28;20049;-66
2023/07/20 00:16:10;;;;;;;5.22;1.73;;;;;;;;;;4975590;28;20049;-66
2023/07/20 00:18:37;;;;;;;3.15;1.40;;;;;;;;;;4976078;28;20035;-67
2023/07/20 00:21:03;;;;;;;5.07;1.40;;;;;;;;;;4975799;28;20041;-67
2023/07/20 00:23:30;;;;;;;4.13;1.50;;;;;;;;;;4975673;28;20023;-67
2023/07/20 00:25:56;;;;;;;5.32;1.50;;;;;;;;;;4975928;28;20035;-66
2023/07/20 00:28:22;;;;;;;4.68;1.42;;;;;;;;;;4975828;28;20049;-66
2023/07/20 00:30:49;;;;;;;3.72;1.70;;;;;;;;;;4975506;28;20027;-65
2023/07/20 00:33:17;;;;;;;4.93;1.77;;;;;;;;;;4976095;28;20023;-67
2023/07/20 00:35:44;;;;;;;2.80;1.30;;;;;;;;;;4975396;28;20037;-66
2023/07/20 00:38:11;;;;;;;3.83;1.80;;;;;;;;;;4975653;28;20033;-67
2023/07/20 00:40:38;;;;;;;5.13;1.40;;;;;;;;;;4975675;28;20042;-66
2023/07/20 00:43:04;;;;;;;4.10;1.42;;;;;;;;;;4975642;28;20019;-66
2023/07/20 00:45:31;;;;;;;4.18;1.40;;;;;;;;;;4973972;28;20027;-66
2023/07/20 00:47:57;;;;;;;3.00;1.58;;;;;;;;;;4975387;28;20026;-67
2023/07/20 00:50:24;;;;;;;4.95;1.55;;;;;;;;;;4975384;28;20030;-67
2023/07/20 00:52:51;;;;;;;3.85;1.92;;;;;;;;;;4975454;28;20023;-66
2023/07/20 00:55:19;;;;;;;3.65;1.88;;;;;;;;;;4975385;28;20023;-67
2023/07/20 00:57:45;;;;;;;4.38;1.77;;;;;;;;;;4975072;28;20027;-66
2023/07/20 01:00:12;;;;;;;3.53;1.42;;;;;;;;;;4974863;28;20033;-66
2023/07/20 01:02:38;;;;;;;3.45;1.85;;;;;;;;;;4975448;28;20045;-67
2023/07/20 01:05:06;;;;;;;3.50;1.58;;;;;;;;;;4975309;28;20026;-66
2023/07/20 01:07:38;;;;;;;5.10;1.77;;;;;;;;;;4975165;28;20030;-67
2023/07/20 01:10:08;;;;;;;5.32;1.60;;;;;;;;;;4975238;28;20027;-66
2023/07/20 01:12:47;;;;;;;4.00;1.42;;;;;;;;;;4974536;28;20034;-66
2023/07/20 01:15:13;;;;;;;4.97;1.40;;;;;;;;;;4974800;28;20122;-66
2023/07/20 01:17:40;;;;;;;2.88;1.30;;;;;;;;;;4974620;28;20395;-66
2023/07/20 01:20:07;;;;;;;3.42;1.40;;;;;;;;;;4975003;28;20084;-67
2023/07/20 01:22:46;;;;;;;2.50;1.58;;;;;;;;;;4974868;28;20027;-66
2023/07/20 01:25:12;;;;;;;3.33;1.48;;;;;;;;;;4974744;28;20029;-66
2023/07/20 01:27:52;;;;;;;5.47;1.45;;;;;;;;;;4974520;28;20046;-66
2023/07/20 01:30:27;;;;;;;4.47;1.67;;;;;;;;;;4974651;28;20483;-66
2023/07/20 01:32:56;;;;;;;4.32;1.40;;;;;;;;;;4989801;28;20031;-67
2023/07/20 01:35:24;;;;;;;7.85;1.60;;;;;;;;;;4974612;28;20038;-67
2023/07/20 01:37:51;;;;;;;2.38;1.50;;;;;;;;;;4974767;28;20015;-66
2023/07/20 01:40:17;;;;;;;5.15;1.63;;;;;;;;;;4974573;28;20046;-66
2023/07/20 01:42:46;;;;;;;2.65;1.40;;;;;;;;;;4974318;28;20015;-67
2023/07/20 01:45:12;;;;;;;5.57;1.52;;;;;;;;;;4974408;28;20089;-66
2023/07/20 01:47:38;;;;;;;2.42;1.45;;;;;;;;;;4973946;28;20026;-67
2023/07/20 01:50:05;;;;;;;2.78;1.67;;;;;;;;;;4974333;28;20027;-67
2023/07/20 01:52:31;;;;;;;4.80;1.58;;;;;;;;;;4974294;28;20086;-67
2023/07/20 01:54:57;;;;;;;5.72;1.60;;;;;;;;;;4974327;28;20022;-67
2023/07/20 01:57:24;;;;;;;2.60;1.73;;;;;;;;;;4973842;28;20041;-66
2023/07/20 01:59:50;;;;;;;5.55;1.60;;;;;;;;;;4974330;28;20033;-66
2023/07/20 02:02:18;;;;;;;3.53;1.50;;;;;;;;;;4974237;28;20037;-67
2023/07/20 02:04:44;;;;;;;3.80;1.63;;;;;;;;;;4974458;28;20029;-67
2023/07/20 02:07:10;;;;;;;3.60;1.60;;;;;;;;;;4974093;28;20029;-66
2023/07/20 02:09:36;;;;;;;4.55;1.60;;;;;;;;;;4974325;28;20037;-66
2023/07/20 02:12:03;;;;;;;6.65;1.60;;;;;;;;;;4973755;28;20026;-66
2023/07/20 02:14:29;;;;;;;4.68;1.67;;;;;;;;;;4973898;28;20491;-67
2023/07/20 02:16:59;;;;;;;5.18;1.88;;;;;;;;;;4973836;28;20023;-66
2023/07/20 02:19:29;;;;;;;5.63;1.77;;;;;;;;;;4973878;28;20037;-66
2023/07/20 02:21:55;;;;;;;5.10;1.73;;;;;;;;;;4972414;28;20047;-66
2023/07/20 02:24:21;;;;;;;6.18;1.60;;;;;;;;;;4973885;28;20030;-66
2023/07/20 02:26:48;;;;;;;4.72;1.75;;;;;;;;;;4973351;28;20090;-66
2023/07/20 02:29:14;;;;;;;2.45;1.48;;;;;;;;;;4973907;28;20471;-66
2023/07/20 02:31:42;;;;;;;5.13;2.28;;;;;;;;;;4973769;28;20037;-66
2023/07/20 02:34:09;;;;;;;4.07;1.98;;;;;;;;;;4974069;28;20026;-66
2023/07/20 02:36:35;;;;;;;3.72;1.80;;;;;;;;;;4973678;28;20406;-67
2023/07/20 02:39:03;;;;;;;3.47;1.50;;;;;;;;;;4973712;28;20501;-66
2023/07/20 02:41:31;;;;;;;4.28;2.05;;;;;;;;;;4973368;28;20035;-66
2023/07/20 02:43:57;;;;;;;6.05;1.30;;;;;;;;;;4973784;28;20038;-67
2023/07/20 02:46:23;;;;;;;4.70;1.85;;;;;;;;;;4973959;28;20015;-66
2023/07/20 02:48:50;;;;;;;5.65;1.67;;;;;;;;;;4973504;28;20027;-66
2023/07/20 02:51:16;;;;;;;3.65;1.67;;;;;;;;;;4973869;28;20031;-66
2023/07/20 02:53:42;;;;;;;7.35;2.03;;;;;;;;;;4973552;28;20033;-66
2023/07/20 02:56:09;;;;;;;3.55;1.48;;;;;;;;;;4973532;28;20034;-66
2023/07/20 02:58:38;;;;;;;3.28;1.80;;;;;;;;;;4974431;28;20029;-66
2023/07/20 03:01:04;;;;;;;3.50;1.85;;;;;;;;;;4977230;28;20039;-66
2023/07/20 03:03:31;;;;;;;3.78;1.70;;;;;;;;;;4977382;28;20026;-67
2023/07/20 03:05:59;;;;;;;4.30;1.77;;;;;;;;;;4977607;28;20038;-66
2023/07/20 03:08:25;;;;;;;3.00;1.60;;;;;;;;;;4977301;28;20580;-66
2023/07/20 03:10:51;;;;;;;4.10;1.77;;;;;;;;;;4977161;28;20027;-67
2023/07/20 03:13:18;;;;;;;2.85;1.58;;;;;;;;;;4975738;28;20041;-65
2023/07/20 03:15:44;;;;;;;3.75;1.90;;;;;;;;;;4977178;28;20034;-66
2023/07/20 03:18:10;;;;;;;2.15;1.42;;;;;;;;;;4977097;28;20018;-66
2023/07/20 03:20:37;;;;;;;5.22;1.88;;;;;;;;;;4976959;28;20035;-66
2023/07/20 03:23:03;;;;;;;4.10;1.75;;;;;;;;;;4976999;28;20401;-66
2023/07/20 03:25:29;;;;;;;4.93;1.55;;;;;;;;;;4977336;28;20027;-66
2023/07/20 03:27:56;;;;;;;3.28;1.52;;;;;;;;;;4977197;28;20034;-66
2023/07/20 03:30:23;;;;;;;3.25;1.70;;;;;;;;;;4976859;28;20023;-67
2023/07/20 03:32:49;;;;;;;3.53;1.88;;;;;;;;;;4976918;28;20102;-66
2023/07/20 03:35:16;;;;;;;6.53;1.73;;;;;;;;;;4976987;28;20026;-67
2023/07/20 03:37:43;;;;;;;3.45;1.70;;;;;;;;;;4976703;28;20027;-66
2023/07/20 03:40:09;;;;;;;5.80;1.60;;;;;;;;;;4976683;28;20035;-66
2023/07/20 03:42:36;;;;;;;4.13;1.60;;;;;;;;;;4976702;28;20045;-66
2023/07/20 03:45:02;;;;;;;4.55;1.80;;;;;;;;;;4976995;28;20029;-66
2023/07/20 03:47:29;;;;;;;2.67;1.98;;;;;;;;;;4976540;28;20019;-66
2023/07/20 03:49:55;;;;;;;3.58;1.60;;;;;;;;;;4976948;28;20073;-66
2023/07/20 03:52:21;;;;;;;2.63;1.70;;;;;;;;;;4976099;28;20027;-66
2023/07/20 03:54:48;;;;;;;5.40;1.80;;;;;;;;;;4976538;28;20031;-66
2023/07/20 03:57:14;;;;;;;5.22;1.70;;;;;;;;;;4976378;28;20471;-67
2023/07/20 03:59:46;;;;;;;4.30;1.77;;;;;;;;;;4976205;28;20023;-66
2023/07/20 04:02:12;;;;;;;5.70;1.92;;;;;;;;;;4976540;28;20044;-66
2023/07/20 04:04:38;;;;;;;7.15;1.92;;;;;;;;;;4976303;28;20031;-66
2023/07/20 04:07:05;;;;;;;5.20;2.10;;;;;;;;;;4976009;28;20038;-66
2023/07/20 04:09:32;;;;;;;3.22;1.60;;;;;;;;;;4975733;28;20025;-66
2023/07/20 04:11:58;;;;;;;3.90;1.55;;;;;;;;;;4976138;28;20505;-66
2023/07/20 04:14:25;;;;;;;2.42;1.55;;;;;;;;;;4976056;28;20047;-66
2023/07/20 04:16:51;;;;;;;6.55;1.60;;;;;;;;;;4975978;28;20015;-66
2023/07/20 04:19:18;;;;;;;4.90;1.65;;;;;;;;;;4975605;28;20463;-66
2023/07/20 04:21:44;;;;;;;5.03;2.13;;;;;;;;;;4975584;28;20034;-66
2023/07/20 04:24:10;;;;;;;2.63;1.70;;;;;;;;;;4975855;28;20022;-66
2023/07/20 04:26:37;;;;;;;2.97;1.90;;;;;;;;;;4976042;28;20075;-66
2023/07/20 04:29:03;;;;;;;6.93;2.20;;;;;;;;;;4975805;28;20031;-66
2023/07/20 04:31:33;;;;;;;3.45;1.90;;;;;;;;;;4975732;28;20045;-67
2023/07/20 04:33:59;;;;;;;3.30;1.70;;;;;;;;;;4975613;28;20023;-66
2023/07/20 04:36:25;;;;;;;3.75;2.28;;;;;;;;;;4974352;28;20035;-66
2023/07/20 04:38:52;;;;;;;4.55;2.10;;;;;;;;;;4975641;28;20023;-66
2023/07/20 04:41:18;;;;;;;5.68;1.80;;;;;;;;;;4975563;28;20046;-66
2023/07/20 04:43:44;;;;;;;4.50;1.90;;;;;;;;;;4975317;28;20030;-66
2023/07/20 04:46:11;;;;;;;4.22;1.90;;;;;;;;;;4974225;28;20031;-66
2023/07/20 04:48:38;;;;;;;4.97;2.15;;;;;;;;;;4975737;28;20030;-66
2023/07/20 04:51:04;;;;;;;4.32;1.80;;;;;;;;;;4975419;28;20023;-66
2023/07/20 04:53:30;;;;;;;2.88;1.75;;;;;;;;;;4975453;28;20029;-66
2023/07/20 04:55:57;;;;;;;4.82;2.00;;;;;;;;;;4975360;28;20069;-66
2023/07/20 04:58:23;;;;;;;6.30;2.25;;;;;;;;;;4975371;28;20022;-66
2023/07/20 05:00:50;;;;;;;2.47;1.67;;;;;;;;;;4975250;28;20045;-66
2023/07/20 05:03:16;;;;;;;6.55;2.20;;;;;;;;;;4975284;28;20027;-66
2023/07/20 05:05:43;;;;;;;5.72;1.75;;;;;;;;;;4974907;28;20034;-66
2023/07/20 05:08:09;;;;;;;5.63;2.13;;;;;;;;;;4975237;28;20030;-66
2023/07/20 05:10:35;;;;;;;3.30;1.90;;;;;;;;;;4975115;28;20027;-66
2023/07/20 05:13:02;;;;;;;2.40;2.00;;;;;;;;;;4974868;28;20019;-66
2023/07/20 05:15:28;;;;;;;5.47;1.70;;;;;;;;;;4974862;28;20054;-66
2023/07/20 05:17:54;;;;;;;4.25;1.70;;;;;;;;;;4974828;28;20368;-66
2023/07/20 05:20:21;;;;;;;4.43;2.13;;;;;;;;;;4974486;28;20027;-67
2023/07/20 05:22:47;;;;;;;6.47;2.13;;;;;;;;;;4974092;28;20031;-66
2023/07/20 05:25:14;;;;;;;6.55;2.00;;;;;;;;;;4974751;28;20026;-66
2023/07/20 05:27:40;;;;;;;3.78;2.00;;;;;;;;;;4974828;28;20023;-66
2023/07/20 05:30:07;;;;;;;2.80;1.85;;;;;;;;;;4974611;28;20030;-66
2023/07/20 05:32:34;;;;;;;5.32;1.70;;;;;;;;;;4974934;28;20033;-66
2023/07/20 05:35:00;;;;;;;4.88;1.90;;;;;;;;;;4973293;28;20027;-66
2023/07/20 05:37:26;;;;;;;5.35;1.65;;;;;;;;;;4974493;28;20037;-66
2023/07/20 05:39:53;;;;;;;4.18;2.15;;;;;;;;;;4974594;28;20033;-66
2023/07/20 05:42:19;;;;;;;8.10;1.98;;;;;;;;;;4974617;28;20030;-66
2023/07/20 05:44:48;;;;;;;5.05;2.75;;;;;;;;;;4974605;28;20014;-66
2023/07/20 05:47:14;;;;;;;4.70;2.10;;;;;;;;;;4974389;28;20394;-66
2023/07/20 05:49:40;;;;;;;8.90;2.00;;;;;;;;;;4974051;28;20089;-67
2023/07/20 05:52:06;;;;;;;8.25;2.10;;;;;;;;;;4974181;28;20027;-66
2023/07/20 05:54:33;;;;;;;4.85;2.40;;;;;;;;;;4974337;28;20034;-66
2023/07/20 05:56:59;;;;;;;3.17;2.15;;;;;;;;;;4974313;28;20735;-66
2023/07/20 05:59:29;;;;;;;5.00;2.25;;;;;;;;;;4974450;28;20049;-66
2023/07/20 06:01:55;;;;;;;5.43;2.00;;;;;;;;;;4973453;28;20041;-62
2023/07/20 06:04:22;;;;;;;3.25;2.10;;;;;;;;;;4970171;28;20057;-62
2023/07/20 06:06:48;;;;;;;5.03;2.42;;;;;;;;;;4973438;28;20023;-62
2023/07/20 06:09:14;;;;;;;6.78;2.08;;;;;;;;;;4972527;28;20023;-62
2023/07/20 06:11:41;;;;;;;7.45;2.30;;;;;;;;;;4967016;28;20057;-67
2023/07/20 06:14:07;;;;;;;7.50;2.30;;;;;;;;;;4971295;28;20034;-67
2023/07/20 06:16:33;;;;;;;3.35;1.98;;;;;;;;;;4972647;28;20035;-67
2023/07/20 06:19:02;;;;;;;4.55;2.70;;;;;;;;;;4965617;28;20018;-67
2023/07/20 06:21:29;;;;;;;6.82;2.30;;;;;;;;;;4973303;28;20038;-67
2023/07/20 06:23:55;;;;;;;6.75;2.25;;;;;;;;;;4971704;28;20031;-68
2023/07/20 06:26:21;;;;;;;11.07;2.80;;;;;;;;;;4973202;28;20023;-67
2023/07/20 06:28:48;;;;;;;5.15;2.45;;;;;;;;;;4973354;28;20025;-67
2023/07/20 06:31:14;;;;;;;5.53;2.58;;;;;;;;;;4959168;28;20027;-67
2023/07/20 06:33:40;;;;;;;4.30;1.98;;;;;;;;;;4952801;28;20026;-67
2023/07/20 06:36:07;;;;;;;5.00;2.15;;;;;;;;;;4952899;28;20027;-67
2023/07/20 06:38:33;;;;;;;8.68;2.67;;;;;;;;;;4970683;28;20511;-68
2023/07/20 06:40:59;;;;;;;3.78;2.13;;;;;;;;;;4970637;28;20041;-66
2023/07/20 06:43:26;;;;;;;5.13;2.28;;;;;;;;;;4971137;28;20038;-68
2023/07/20 06:45:56;;;;;;;4.40;2.53;;;;;;;;;;4971931;28;20025;-66
2023/07/20 06:48:22;;;;;;;5.33;2.27;;;;;;;;;;4971555;28;20468;-67
2023/07/20 06:50:49;;;;;;;8.52;2.90;;;;;;;;;;4972402;28;20030;-67
2023/07/20 06:53:15;;;;;;;5.88;2.35;;;;;;;;;;4971806;28;20022;-67
2023/07/20 06:55:43;;;;;;;10.85;2.42;;;;;;;;;;4958823;28;20053;-66
2023/07/20 06:58:09;;;;;;;9.60;2.13;;;;;;;;;;4969403;28;20023;-67
2023/07/20 07:00:36;;;;;;;6.85;2.20;;;;;;;;;;4971726;28;20026;-66
2023/07/20 07:03:02;;;;;;;5.65;2.17;;;;;;;;;;4970411;28;20387;-66
2023/07/20 07:05:29;;;;;;;4.00;2.30;;;;;;;;;;4972475;28;20031;-66
2023/07/20 07:07:55;;;;;;;4.30;1.92;;;;;;;;;;4971491;28;20031;-66
2023/07/20 07:10:21;;;;;;;6.47;2.38;;;;;;;;;;4971408;28;20491;-66
2023/07/20 07:12:48;;;;;;;7.38;2.78;;;;;;;;;;4968574;28;20033;-66
2023/07/20 07:15:14;;;;;;;5.40;2.38;;;;;;;;;;4967269;28;20057;-66
2023/07/20 07:17:41;;;;;;;14.70;3.20;;;;;;;;;;4970599;28;20423;-66
2023/07/20 07:20:08;;;;;;;9.50;2.28;;;;;;;;;;4968656;28;20045;-66
2023/07/20 07:22:34;;;;;;;6.65;2.20;;;;;;;;;;4971113;28;20031;-66
2023/07/20 07:25:01;;;;;;;7.75;2.47;;;;;;;;;;4970562;28;20030;-66
2023/07/20 07:27:27;;;;;;;5.20;2.38;;;;;;;;;;4971508;28;20033;-66
2023/07/20 07:29:54;;;;;;;7.07;2.60;;;;;;;;;;4971170;28;20037;-66
2023/07/20 07:32:21;;;;;;;6.85;2.45;;;;;;;;;;4971545;28;20027;-66
2023/07/20 07:34:48;;;;;;;9.15;2.30;;;;;;;;;;4972124;28;20030;-66
2023/07/20 07:37:15;;;;;;;6.03;2.20;;;;;;;;;;4972221;28;20041;-66
2023/07/20 07:39:41;;;;;;;4.65;1.80;;;;;;;;;;4972510;28;20480;-60
2023/07/20 07:42:07;;;;;;;5.15;2.47;;;;;;;;;;4972182;28;20055;-60
2023/07/20 07:44:34;;;;;;;9.05;2.30;;;;;;;;;;4961657;28;20015;-59
2023/07/20 07:47:00;;;;;;;6.38;2.10;;;;;;;;;;4956206;29;20082;-60
2023/07/20 07:49:27;;;;;;;7.10;2.25;;;;;;;;;;4956577;28;20027;-59
2023/07/20 07:51:53;;;;;;;2.83;1.90;;;;;;;;;;4974232;28;20387;-60
2023/07/20 07:54:20;;;;;;;4.72;1.95;;;;;;;;;;4975496;28;20039;-59
2023/07/20 07:56:46;;;;;;;3.75;2.10;;;;;;;;;;4975157;28;20106;-60
2023/07/20 07:59:12;;;;;;;3.70;2.08;;;;;;;;;;4975247;28;20031;-60
2023/07/20 08:01:39;;;;;;;6.38;1.95;;;;;;;;;;4974554;28;20496;-60
2023/07/20 08:04:05;;;;;;;3.10;1.90;;;;;;;;;;4975214;28;20401;-59
2023/07/20 08:06:31;;;;;;;5.35;2.03;;;;;;;;;;4975205;28;20296;-60
2023/07/20 08:08:58;;;;;;;4.05;2.03;;;;;;;;;;4975009;28;20030;-60
2023/07/20 08:11:24;;;;;;;5.30;2.17;;;;;;;;;;4974781;28;20480;-59
2023/07/20 08:13:51;;;;;;;4.72;2.30;;;;;;;;;;4974183;28;20027;-60
2023/07/20 08:16:17;;;;;;;7.38;2.00;;;;;;;;;;4973619;28;20039;-59
2023/07/20 08:18:45;;;;;;;2.35;1.45;;;;;;;;;;4975178;28;20022;-60
2023/07/20 08:21:11;;;;;;;2.40;1.63;;;;;;;;;;4974294;28;20033;-59
2023/07/20 08:23:38;;;;;;;5.40;2.20;;;;;;;;;;4974816;28;20089;-60
2023/07/20 08:26:04;;;;;;;9.07;2.10;;;;;;;;;;4974229;28;20365;-60
2023/07/20 08:28:31;;;;;;;7.35;2.13;;;;;;;;;;4974700;28;20499;-60
2023/07/20 08:30:57;;;;;;;4.75;1.80;;;;;;;;;;4975137;28;20027;-60
2023/07/20 08:33:24;;;;;;;4.93;2.13;;;;;;;;;;4975236;28;20027;-60
2023/07/20 08:35:50;;;;;;;5.10;1.83;;;;;;;;;;4974775;28;20505;-60
2023/07/20 08:38:17;;;;;;;3.65;1.90;;;;;;;;;;4975083;28;20038;-60
2023/07/20 08:40:44;;;;;;;7.20;1.70;;;;;;;;;;4974909;28;20034;-60
2023/07/20 08:43:14;;;;;;;5.35;1.70;;;;;;;;;;4974280;28;20031;-60
2023/07/20 08:45:41;;;;;;;2.60;1.77;;;;;;;;;;4974499;28;20030;-60
2023/07/20 08:48:08;;;;;;;4.32;1.98;;;;;;;;;;4975089;28;20022;-60
2023/07/20 08:50:35;;;;;;;6.32;1.88;;;;;;;;;;4974702;28;20030;-60
2023/07/20 08:53:02;;;;;;;4.63;1.70;;;;;;;;;;4973862;28;20035;-60
2023/07/20 08:55:29;;;;;;;2.95;1.83;;;;;;;;;;4973514;28;20034;-60
2023/07/20 08:57:56;;;;;;;4.00;1.80;;;;;;;;;;4973172;28;20494;-60
2023/07/20 09:00:23;;;;;;;6.22;1.80;;;;;;;;;;4974269;28;20497;-60
2023/07/20 09:02:56;;;;;;;5.22;1.80;;;;;;;;;;4974335;28;20041;-60
2023/07/20 09:05:24;;;;;;;5.68;2.30;;;;;;;;;;4974120;28;20026;-60
2023/07/20 09:07:52;;;;;;;8.88;2.10;;;;;;;;;;4974325;28;20033;-60
2023/07/20 09:10:21;;;;;;;4.25;1.88;;;;;;;;;;4974039;28;20037;-60
2023/07/20 09:12:47;;;;;;;4.07;2.13;;;;;;;;;;4973968;28;20099;-60
2023/07/20 09:15:13;;;;;;;3.08;1.60;;;;;;;;;;4973778;28;20047;-61
2023/07/20 09:17:40;;;;;;;6.47;2.15;;;;;;;;;;4973879;28;20080;-60
2023/07/20 09:20:10;;;;;;;4.25;2.00;;;;;;;;;;4972076;28;20081;-61
2023/07/20 09:22:39;;;;;;;;;;;;;;;;;;4973547;28;20582;-61
2023/07/20 09:25:15;;;;;;;4.78;1.85;;;;;;;;;;4973238;28;19916;-61
2023/07/20 09:27:43;;;;;;;5.32;2.00;;;;;;;;;;4973913;28;20019;-61
2023/07/20 09:30:12;;;;;;;3.08;2.00;;;;;;;;;;4974227;28;20023;-62
2023/07/20 09:32:43;;;;;;;4.70;2.00;;;;;;;;;;4973694;28;20025;-61
2023/07/20 09:35:19;;;;;;;7.25;1.98;;;;;;;;;;4973314;28;20633;-61
2023/07/20 09:38:02;;;;;;;4.40;2.15;;;;;;;;;;4973846;28;20033;-61
2023/07/20 09:40:28;;;;;;;2.60;1.90;;;;;;;;;;4972974;28;20035;-61
2023/07/20 09:43:03;;;;;;;4.65;2.03;;;;;;;;;;4973855;28;20053;-61
2023/07/20 09:45:30;;;;;;;6.30;2.35;;;;;;;;;;4973174;28;20022;-61
2023/07/20 09:48:05;;;;;;;4.00;2.00;;;;;;;;;;4972999;28;20049;-61
2023/07/20 09:50:31;;;;;;;5.55;2.20;;;;;;;;;;4973358;28;20035;-61
2023/07/20 09:52:59;;;;;;;4.63;2.03;;;;;;;;;;4972420;28;20033;-61
2023/07/20 09:55:26;;;;;;;5.07;2.00;;;;;;;;;;4972853;28;20023;-61
2023/07/20 09:57:53;;;;;;;11.30;2.50;;;;;;;;;;4973445;28;20391;-62
2023/07/20 10:00:20;;;;;;;3.35;2.13;;;;;;;;;;4972917;28;20380;-62
2023/07/20 10:02:46;;;;;;;2.80;2.00;;;;;;;;;;4972719;28;20034;-61
2023/07/20 10:05:14;;;;;;;3.90;1.95;;;;;;;;;;4972871;28;20023;-62
2023/07/20 10:07:51;;;;;;;4.05;2.15;;;;;;;;;;4972947;28;20035;-66
2023/07/20 10:10:18;;;;;;;3.28;1.90;;;;;;;;;;4973079;28;20031;-67
2023/07/20 10:12:49;;;;;;;8.13;2.60;;;;;;;;;;4973377;28;20029;-67
2023/07/20 10:15:21;;;;;;;4.15;2.17;;;;;;;;;;4973513;28;20505;-67
2023/07/20 10:17:53;;;;;;;3.15;2.15;;;;;;;;;;4973038;28;20081;-67
2023/07/20 10:20:21;;;;;;;5.70;2.20;;;;;;;;;;4972872;28;20430;-67
2023/07/20 10:22:48;;;;;;;4.75;2.20;;;;;;;;;;4971136;28;20306;-67
2023/07/20 10:25:15;;;;;;;8.18;2.30;;;;;;;;;;4969801;28;20033;-67
2023/07/20 10:27:41;;;;;;;5.75;2.10;;;;;;;;;;4971665;28;20026;-67
2023/07/20 10:30:07;;;;;;;7.85;2.20;;;;;;;;;;4972953;28;20106;-67
2023/07/20 10:32:34;;;;;;;5.53;1.77;;;;;;;;;;4972624;28;20041;-67
2023/07/20 10:35:00;;;;;;;4.90;1.95;;;;;;;;;;4972651;28;20476;-67
2023/07/20 10:37:45;;;;;;;3.53;2.17;;;;;;;;;;4971082;28;20123;-67
2023/07/20 10:40:24;;;;;;;5.07;2.08;;;;;;;;;;4972734;28;20025;-67
2023/07/20 10:42:50;;;;;;;4.80;2.30;;;;;;;;;;4972773;28;20035;-67
2023/07/20 10:45:18;;;;;;;7.38;2.20;;;;;;;;;;4972357;28;20491;-67
2023/07/20 10:47:47;;;;;;;5.30;2.10;;;;;;;;;;4972753;28;20080;-67
2023/07/20 10:50:14;;;;;;;5.28;2.13;;;;;;;;;;4961977;28;20383;-67
2023/07/20 10:52:40;;;;;;;7.15;2.45;;;;;;;;;;4952913;28;20484;-67
2023/07/20 10:55:17;;;;;;;3.00;1.98;;;;;;;;;;4953424;29;20381;-67
2023/07/20 10:57:43;;;;;;;5.43;2.10;;;;;;;;;;4953244;28;20034;-67
2023/07/20 11:00:12;;;;;;;5.35;2.08;;;;;;;;;;4953499;29;20031;-67
2023/07/20 11:02:46;;;;;;;4.70;2.25;;;;;;;;;;4953020;28;20061;-67
2023/07/20 11:05:31;;;;;;;5.78;1.98;;;;;;;;;;4953181;29;20045;-68
2023/07/20 11:07:57;;;;;;;4.70;2.30;;;;;;;;;;4952826;29;20024;-67
2023/07/20 11:10:24;;;;;;;3.45;2.22;;;;;;;;;;4953348;29;20077;-67
2023/07/20 11:13:09;;;;;;;2.78;2.08;;;;;;;;;;4953137;28;20027;-67
2023/07/20 11:15:54;;;;;;;3.10;2.00;;;;;;;;;;4953654;29;20090;-67
2023/07/20 11:18:21;;;;;;;4.68;2.00;;;;;;;;;;4970427;28;20051;-67
2023/07/20 11:20:51;;;;;;;3.63;2.13;;;;;;;;;;4974044;28;20027;-67
2023/07/20 11:23:17;;;;;;;3.17;2.13;;;;;;;;;;4972275;28;20041;-67
2023/07/20 11:25:43;;;;;;;7.57;2.33;;;;;;;;;;4975995;28;20021;-67
2023/07/20 11:28:12;;;;;;;7.68;2.60;;;;;;;;;;4974893;28;20026;-67
2023/07/20 11:30:39;;;;;;;4.25;2.05;;;;;;;;;;4974720;28;20026;-67
2023/07/20 11:33:06;;;;;;;4.00;2.45;;;;;;;;;;4975878;28;20031;-67
2023/07/20 11:35:36;;;;;;;3.35;2.35;;;;;;;;;;4975977;28;20403;-67
2023/07/20 11:38:02;;;;;;;;;;;;;;;;;;4976300;28;20018;-67
2023/07/20 11:40:29;;;;;;;9.85;2.40;;;;;;;;;;4975726;28;19913;-67
2023/07/20 11:42:55;;;;;;;5.03;2.67;;;;;;;;;;4971627;28;20092;-67
2023/07/20 11:45:21;;;;;;;5.85;2.30;;;;;;;;;;4974294;28;20027;-67
2023/07/20 11:47:47;;;;;;;5.95;2.28;;;;;;;;;;4975570;28;20053;-67
2023/07/20 11:50:14;;;;;;;3.85;2.60;;;;;;;;;;4975321;28;20027;-67
2023/07/20 11:52:40;;;;;;;5.50;2.40;;;;;;;;;;4975267;28;20045;-67
2023/07/20 11:55:08;;;;;;;2.67;2.40;;;;;;;;;;4975562;28;20097;-67
2023/07/20 11:57:35;;;;;;;3.85;2.72;;;;;;;;;;4975667;28;20023;-67
2023/07/20 12:00:08;;;;;;;3.42;2.67;;;;;;;;;;4973766;28;20031;-67
2023/07/20 12:02:35;;;;;;;8.50;2.38;;;;;;;;;;4975266;28;20030;-67
2023/07/20 12:05:03;;;;;;;6.18;2.80;;;;;;;;;;4975419;28;20190;-67
2023/07/20 12:07:30;;;;;;;3.00;2.40;;;;;;;;;;4975289;28;20031;-67
2023/07/20 12:10:05;;;;;;;3.65;2.53;;;;;;;;;;4960194;28;20020;-67
2023/07/20 12:12:32;;;;;;;3.42;2.33;;;;;;;;;;4956035;29;20038;-67
2023/07/20 12:15:18;;;;;;;7.05;2.60;;;;;;;;;;4970960;28;20051;-67
2023/07/20 12:17:49;;;;;;;4.53;2.88;;;;;;;;;;4975168;28;20480;-67
2023/07/20 12:20:25;;;;;;;4.00;2.60;;;;;;;;;;4974770;28;20021;-67
2023/07/20 12:22:52;;;;;;;4.45;2.67;;;;;;;;;;4974441;28;20031;-67
2023/07/20 12:25:19;;;;;;;5.28;2.45;;;;;;;;;;4974695;28;20433;-67
2023/07/20 12:27:47;;;;;;;4.47;2.88;;;;;;;;;;4975305;28;20026;-67
2023/07/20 12:30:16;;;;;;;4.82;2.90;;;;;;;;;;4974478;28;20045;-67
2023/07/20 12:32:43;;;;;;;5.70;3.05;;;;;;;;;;4974533;28;20019;-67
2023/07/20 12:35:11;;;;;;;3.53;2.85;;;;;;;;;;4974952;28;20042;-67
2023/07/20 12:37:37;;;;;;;4.75;2.95;;;;;;;;;;4975369;28;20134;-66
2023/07/20 12:40:04;;;;;;;5.65;2.88;;;;;;;;;;4975144;28;20045;-67
2023/07/20 12:42:30;;;;;;;4.32;3.03;;;;;;;;;;4974120;28;20394;-67
2023/07/20 12:44:57;;;;;;;4.13;2.55;;;;;;;;;;4974896;28;20041;-66
2023/07/20 12:47:23;;;;;;;4.13;2.75;;;;;;;;;;4974387;28;20387;-67
2023/07/20 12:49:49;;;;;;;3.00;2.60;;;;;;;;;;4974119;28;20033;-67
2023/07/20 12:52:15;;;;;;;2.85;2.55;;;;;;;;;;4974457;28;20029;-67
2023/07/20 12:54:42;;;;;;;4.05;2.70;;;;;;;;;;4974564;28;20038;-67
2023/07/20 12:57:08;;;;;;;4.13;2.97;;;;;;;;;;4974669;28;20033;-67
2023/07/20 12:59:34;;;;;;;4.63;2.75;;;;;;;;;;4974197;28;20480;-67
2023/07/20 13:02:01;;;;;;;3.22;2.90;;;;;;;;;;4973790;28;20038;-67
2023/07/20 13:04:27;;;;;;;3.58;2.70;;;;;;;;;;4973845;28;20085;-67
2023/07/20 13:06:54;;;;;;;4.72;3.25;;;;;;;;;;4975181;28;20026;-67
2023/07/20 13:09:20;;;;;;;4.40;3.25;;;;;;;;;;4974135;28;20011;-67
2023/07/20 13:11:47;;;;;;;4.10;3.28;;;;;;;;;;4974428;28;20096;-67
2023/07/20 13:14:13;;;;;;;3.38;2.75;;;;;;;;;;4974202;28;20043;-66
2023/07/20 13:16:39;;;;;;;5.80;2.95;;;;;;;;;;4973595;28;20030;-67
2023/07/20 13:19:06;;;;;;;5.20;3.10;;;;;;;;;;4973924;28;20073;-67
2023/07/20 13:21:32;;;;;;;4.07;3.10;;;;;;;;;;4972843;28;20042;-67
2023/07/20 13:23:59;;;;;;;4.13;3.17;;;;;;;;;;4970966;28;20040;-67
2023/07/20 13:26:25;;;;;;;5.10;3.20;;;;;;;;;;4973380;28;20023;-67
2023/07/20 13:28:51;;;;;;;4.47;3.42;;;;;;;;;;4973699;28;20025;-67
2023/07/20 13:31:18;;;;;;;4.25;3.33;;;;;;;;;;4973757;28;20450;-67
2023/07/20 13:33:44;;;;;;;3.50;2.85;;;;;;;;;;4973100;28;20033;-67
2023/07/20 13:36:10;;;;;;;5.90;3.30;;;;;;;;;;4963796;28;20053;-67
2023/07/20 13:38:36;;;;;;;5.90;3.28;;;;;;;;;;4965887;28;20038;-67
2023/07/20 13:41:03;;;;;;;5.05;3.17;;;;;;;;;;4971631;28;20039;-67
2023/07/20 13:43:29;;;;;;;3.88;2.90;;;;;;;;;;4970441;28;20460;-67
2023/07/20 13:45:55;;;;;;;3.65;3.00;;;;;;;;;;4973173;28;20037;-67
2023/07/20 13:48:23;;;;;;;4.43;3.22;;;;;;;;;;4971117;28;20022;-67
2023/07/20 13:50:49;;;;;;;4.75;2.97;;;;;;;;;;4959398;28;20419;-66
2023/07/20 13:53:16;;;;;;;3.67;3.20;;;;;;;;;;4952813;28;20030;-67
2023/07/20 13:55:42;;;;;;;5.22;3.10;;;;;;;;;;4955152;28;20045;-67
2023/07/20 13:58:10;;;;;;;6.25;3.42;;;;;;;;;;4971833;28;20031;-67
2023/07/20 14:00:36;;;;;;;7.63;3.28;;;;;;;;;;4971878;28;20030;-67
2023/07/20 14:03:03;;;;;;;8.30;3.00;;;;;;;;;;4971399;28;20383;-67
2023/07/20 14:05:29;;;;;;;7.68;3.33;;;;;;;;;;4972823;28;20480;-67
2023/07/20 14:07:56;;;;;;;5.10;3.33;;;;;;;;;;4972895;28;20037;-65
2023/07/20 14:10:22;;;;;;;3.53;3.03;;;;;;;;;;4972552;28;20025;-67
2023/07/20 14:12:49;;;;;;;4.40;3.10;;;;;;;;;;4972368;28;20471;-66
2023/07/20 14:15:15;;;;;;;5.38;3.28;;;;;;;;;;4971930;28;20049;-66
2023/07/20 14:17:41;;;;;;;4.18;3.20;;;;;;;;;;4971787;28;20053;-67
2023/07/20 14:20:08;;;;;;;5.55;3.85;;;;;;;;;;4972142;28;20018;-65
2023/07/20 14:22:34;;;;;;;4.35;3.30;;;;;;;;;;4972417;28;20085;-66
2023/07/20 14:25:00;;;;;;;6.82;3.50;;;;;;;;;;4972647;28;20019;-66
2023/07/20 14:27:27;;;;;;;4.70;3.78;;;;;;;;;;4972791;28;20031;-67
2023/07/20 14:29:53;;;;;;;6.80;3.78;;;;;;;;;;4972422;28;20034;-66
2023/07/20 14:32:20;;;;;;;5.18;3.38;;;;;;;;;;4972138;28;20487;-66
2023/07/20 14:34:46;;;;;;;8.95;3.63;;;;;;;;;;4971333;28;20031;-66
2023/07/20 14:37:13;;;;;;;4.18;3.17;;;;;;;;;;4972358;28;20390;-65
2023/07/20 14:39:39;;;;;;;6.28;3.75;;;;;;;;;;4972361;28;20023;-66
2023/07/20 14:42:06;;;;;;;4.13;3.50;;;;;;;;;;4971887;28;20043;-66
2023/07/20 14:44:33;;;;;;;5.88;3.40;;;;;;;;;;4971318;28;20027;-67